Time;durP1;ratioP1;P1;durP2;ratioP2;P2;SDS_P1;SDS_P2;PMS_P1;PMS_P2;Temp;Humidity;BMP_temperature;BMP_pressure;BME280_temperature;BME280_humidity;BME280_pressure;Samples;Min_cycle;Max_cycle;Signal;HPM_P1;HPM_P2
2022/12/27 05:05:50;;;;;;;1.00;1.00;;;2.90;99.90;;;;;;5074952;23;20719;-71
2022/12/27 05:14:02;;;;;;;0.88;0.82;;;2.90;99.90;;;;;;4951688;28;20214;-70
2022/12/27 05:16:37;;;;;;;5.32;1.45;;;2.90;99.90;;;;;;4995581;28;20175;-70
2022/12/27 05:19:04;;;;;;;6.47;2.35;;;2.80;99.90;;;;;;4995600;28;20541;-70
2022/12/27 05:21:29;;;;;;;1.13;1.02;;;2.80;99.90;;;;;;4995696;28;20641;-71
2022/12/27 05:26:40;;;;;;;1.08;1.08;;;2.80;99.90;;;;;;4995545;28;20186;-70
2022/12/27 05:29:06;;;;;;;0.82;0.82;;;2.90;99.90;;;;;;4995304;28;20629;-70
2022/12/27 05:31:33;;;;;;;2.05;1.00;;;2.90;99.90;;;;;;4995235;28;20175;-70
2022/12/27 05:33:58;;;;;;;1.25;0.95;;;2.90;99.90;;;;;;4993702;28;20195;-70
2022/12/27 05:36:25;;;;;;;1.47;1.37;;;2.90;99.90;;;;;;4995215;28;20634;-71
2022/12/27 05:38:51;;;;;;;1.20;1.10;;;2.90;99.90;;;;;;4995379;28;20669;-71
2022/12/27 05:41:17;;;;;;;1.50;1.40;;;2.90;99.90;;;;;;4995034;28;20184;-70
2022/12/27 05:43:43;;;;;;;1.25;1.00;;;3.00;99.90;;;;;;4994404;28;20215;-70
2022/12/27 05:46:14;;;;;;;1.50;1.07;;;3.00;99.90;;;;;;4977817;28;20503;-70
2022/12/27 05:48:40;;;;;;;1.23;1.15;;;3.10;99.90;;;;;;4995053;28;20230;-70
2022/12/27 05:51:08;;;;;;;1.33;1.00;;;3.10;99.90;;;;;;4995093;28;20171;-70
2022/12/27 05:53:34;;;;;;;1.13;1.13;;;3.10;99.90;;;;;;4994650;28;20415;-70
2022/12/27 05:56:00;;;;;;;0.83;0.80;;;3.10;99.90;;;;;;4994729;28;20178;-70
2022/12/27 05:58:26;;;;;;;1.43;0.90;;;3.20;99.90;;;;;;4994764;28;20757;-70
2022/12/27 06:00:52;;;;;;;1.10;1.05;;;3.20;99.90;;;;;;4994818;28;20239;-70
2022/12/27 06:03:17;;;;;;;0.90;0.90;;;3.20;99.90;;;;;;4994539;28;20204;-70
2022/12/27 06:05:43;;;;;;;0.73;0.73;;;3.20;99.90;;;;;;4994427;28;20203;-70
2022/12/27 06:08:09;;;;;;;0.90;0.90;;;3.10;99.90;;;;;;4994758;28;20171;-71
2022/12/27 06:10:35;;;;;;;1.55;1.30;;;3.10;99.90;;;;;;4994492;28;20229;-70
2022/12/27 06:13:02;;;;;;;1.07;0.97;;;3.10;99.90;;;;;;4994082;28;20175;-70
2022/12/27 06:15:27;;;;;;;1.40;1.15;;;3.00;99.90;;;;;;4994180;28;20207;-70
2022/12/27 06:17:53;;;;;;;1.37;1.27;;;3.00;99.90;;;;;;4994503;28;20258;-70
2022/12/27 06:20:19;;;;;;;1.43;1.33;;;2.90;99.90;;;;;;4994045;28;20270;-70
2022/12/27 06:22:44;;;;;;;2.20;1.83;;;2.90;99.90;;;;;;4993920;28;20203;-70
2022/12/27 06:25:10;;;;;;;1.20;1.20;;;2.90;99.90;;;;;;4976882;28;20257;-70
2022/12/27 06:27:36;;;;;;;1.57;1.47;;;2.90;99.90;;;;;;4994298;28;20163;-70
2022/12/27 06:30:02;;;;;;;1.00;1.00;;;2.90;99.90;;;;;;4994237;28;20247;-70
2022/12/27 06:32:27;;;;;;;0.80;0.80;;;2.90;99.90;;;;;;4976253;28;20186;-70
2022/12/27 06:34:53;;;;;;;1.20;1.17;;;2.90;99.90;;;;;;4979524;28;20187;-70
2022/12/27 06:37:18;;;;;;;1.70;1.60;;;2.90;99.90;;;;;;4957579;28;20168;-71
2022/12/27 06:39:44;;;;;;;1.50;1.20;;;2.90;99.90;;;;;;4979766;28;20259;-70
2022/12/27 06:42:10;;;;;;;1.10;1.10;;;2.90;99.90;;;;;;4976668;28;20234;-70
2022/12/27 06:44:35;;;;;;;1.00;1.00;;;2.80;99.90;;;;;;4993586;28;20206;-70
2022/12/27 06:47:01;;;;;;;2.00;1.30;;;2.80;99.90;;;;;;4976057;28;20577;-70
2022/12/27 06:49:28;;;;;;;1.27;1.10;;;2.70;99.90;;;;;;4993972;28;20167;-71
2022/12/27 06:51:53;;;;;;;1.42;0.85;;;2.70;99.90;;;;;;4993935;28;20164;-71
2022/12/27 06:54:19;;;;;;;1.30;1.27;;;2.70;99.90;;;;;;4992659;28;20198;-70
2022/12/27 06:56:45;;;;;;;1.20;1.10;;;2.70;99.90;;;;;;4993924;28;20537;-70
2022/12/27 06:59:10;;;;;;;0.80;0.80;;;2.70;99.90;;;;;;4993848;28;20179;-70
2022/12/27 07:01:36;;;;;;;0.90;0.90;;;2.70;99.90;;;;;;4994154;28;20184;-70
2022/12/27 07:04:02;;;;;;;2.77;1.63;;;2.70;99.90;;;;;;4993068;28;20211;-69
2022/12/27 07:06:30;;;;;;;1.60;1.53;;;2.70;99.90;;;;;;4993626;28;20195;-69
2022/12/27 07:08:57;;;;;;;1.25;1.15;;;2.70;99.90;;;;;;4993771;28;20229;-70
2022/12/27 07:11:23;;;;;;;1.65;1.55;;;2.70;99.90;;;;;;4993800;28;20171;-69
2022/12/27 07:13:51;;;;;;;1.58;1.35;;;2.70;99.90;;;;;;4987214;28;20195;-70
2022/12/27 07:16:19;;;;;;;1.20;1.20;;;2.70;99.90;;;;;;4987373;28;20187;-70
2022/12/27 07:18:46;;;;;;;1.50;1.40;;;2.70;99.90;;;;;;4993642;28;20233;-72
2022/12/27 07:21:14;;;;;;;1.30;1.20;;;2.70;99.90;;;;;;4993684;28;20171;-73
2022/12/27 07:23:40;;;;;;;1.23;1.13;;;2.70;99.90;;;;;;4993094;28;20262;-72
2022/12/27 07:26:08;;;;;;;1.23;1.13;;;2.70;99.90;;;;;;4993072;28;20175;-67
2022/12/27 07:28:34;;;;;;;2.05;1.20;;;2.80;99.90;;;;;;4993073;28;20407;-69
2022/12/27 07:31:14;;;;;;;1.95;1.30;;;2.80;99.90;;;;;;4984029;28;20183;-69
2022/12/27 07:33:41;;;;;;;1.40;1.30;;;2.80;99.90;;;;;;4979605;28;20175;-69
2022/12/27 07:36:11;;;;;;;2.17;2.03;;;2.90;99.90;;;;;;4990326;28;20636;-69
2022/12/27 07:38:36;;;;;;;3.15;2.42;;;3.00;99.90;;;;;;4974081;28;20643;-74
2022/12/27 07:41:02;;;;;;;1.73;1.63;;;3.00;99.90;;;;;;4974354;28;20258;-70
2022/12/27 07:43:34;;;;;;;2.20;1.43;;;3.20;99.90;;;;;;4973549;28;20223;-65
2022/12/27 07:46:14;;;;;;;2.42;2.10;;;3.40;99.90;;;;;;4993295;28;20250;-69
2022/12/27 07:48:41;;;;;;;2.58;1.98;;;3.50;99.90;;;;;;4993740;28;20174;-69
2022/12/27 07:51:06;;;;;;;1.75;1.65;;;3.50;99.90;;;;;;4975903;28;20172;-69
2022/12/27 07:53:33;;;;;;;1.70;1.60;;;3.60;99.90;;;;;;4992929;28;20924;-68
2022/12/27 07:55:58;;;;;;;2.70;1.60;;;3.70;99.90;;;;;;4993665;28;20415;-66
2022/12/27 07:58:24;;;;;;;2.13;1.43;;;3.70;99.90;;;;;;4993319;28;20179;-66
2022/12/27 08:00:51;;;;;;;1.43;1.43;;;3.80;99.90;;;;;;4993186;28;20172;-64
2022/12/27 08:03:17;;;;;;;1.63;1.45;;;3.90;99.90;;;;;;4992696;28;20454;-67
2022/12/27 08:05:53;;;;;;;4.45;2.17;;;4.00;99.90;;;;;;4994515;28;20247;-68
2022/12/27 08:08:21;;;;;;;1.33;1.23;;;4.10;99.90;;;;;;4996434;28;20184;-67
2022/12/27 08:10:46;;;;;;;1.40;1.40;;;4.10;99.90;;;;;;4996899;28;20176;-69
2022/12/27 08:13:12;;;;;;;1.33;1.30;;;4.20;99.90;;;;;;4996452;28;20184;-65
2022/12/27 08:15:39;;;;;;;1.43;1.43;;;4.30;99.90;;;;;;4996548;28;20249;-75
2022/12/27 08:18:06;;;;;;;5.20;1.75;;;4.40;99.90;;;;;;4996303;28;20710;-70
2022/12/27 08:20:32;;;;;;;1.38;1.30;;;4.60;99.90;;;;;;4996719;28;20178;-72
2022/12/27 08:22:57;;;;;;;1.50;1.40;;;4.70;99.90;;;;;;4996099;28;20206;-66
2022/12/27 08:25:23;;;;;;;1.53;1.30;;;4.90;99.90;;;;;;4996421;28;20187;-63
2022/12/27 08:27:49;;;;;;;2.57;1.20;;;5.20;99.90;;;;;;4996205;28;20183;-67
2022/12/27 08:30:14;;;;;;;1.33;1.33;;;5.50;99.90;;;;;;4984369;28;20211;-65
2022/12/27 08:32:40;;;;;;;1.60;1.50;;;5.90;99.90;;;;;;4987475;28;20175;-66
2022/12/27 08:35:06;;;;;;;0.97;0.97;;;6.40;99.90;;;;;;4981380;28;20231;-65
2022/12/27 08:37:32;;;;;;;1.13;1.10;;;7.00;99.90;;;;;;4977144;28;20259;-68
2022/12/27 08:39:57;;;;;;;0.98;0.98;;;7.60;99.90;;;;;;4976744;28;20449;-69
2022/12/27 08:42:24;;;;;;;1.10;1.00;;;8.20;99.90;;;;;;4979077;28;20201;-67
2022/12/27 08:44:49;;;;;;;2.63;1.00;;;8.80;99.90;;;;;;4987817;28;20203;-67
2022/12/27 08:47:15;;;;;;;1.37;1.20;;;9.50;99.90;;;;;;4986165;28;20487;-68
2022/12/27 08:49:40;;;;;;;2.00;1.27;;;10.10;99.90;;;;;;4984222;28;20177;-70
2022/12/27 08:52:06;;;;;;;1.40;1.30;;;10.60;99.90;;;;;;4985207;28;20247;-66
2022/12/27 08:54:32;;;;;;;1.77;1.50;;;10.90;99.90;;;;;;4985302;28;20554;-67
2022/12/27 08:56:57;;;;;;;1.27;1.27;;;11.20;99.90;;;;;;4983948;28;20260;-67
2022/12/27 08:59:23;;;;;;;1.90;1.20;;;11.50;99.90;;;;;;4986565;28;20208;-67
2022/12/27 09:01:48;;;;;;;0.97;0.73;;;11.70;99.90;;;;;;4979575;28;20177;-68
2022/12/27 09:04:14;;;;;;;1.10;0.90;;;11.80;99.90;;;;;;4975897;28;20343;-67
2022/12/27 09:06:40;;;;;;;0.83;0.80;;;11.80;99.90;;;;;;4976413;28;20228;-69
2022/12/27 09:09:05;;;;;;;1.00;1.00;;;11.90;98.80;;;;;;4976478;28;20272;-69
2022/12/27 09:11:33;;;;;;;1.63;1.53;;;12.00;99.40;;;;;;4984757;28;20252;-67
2022/12/27 09:14:01;;;;;;;1.03;0.70;;;12.10;99.60;;;;;;4995213;28;20197;-68
2022/12/27 09:16:28;;;;;;;1.00;1.00;;;12.20;98.40;;;;;;4995311;28;20770;-68
2022/12/27 09:18:55;;;;;;;1.63;0.80;;;12.00;97.90;;;;;;4994718;28;20762;-67
2022/12/27 09:21:22;;;;;;;1.00;0.97;;;11.80;97.60;;;;;;4995600;28;20523;-70
2022/12/27 09:23:49;;;;;;;1.20;1.10;;;11.80;97.70;;;;;;4994966;28;20554;-67
2022/12/27 09:26:25;;;;;;;2.43;1.20;;;11.80;98.60;;;;;;4985472;28;20550;-69
2022/12/27 09:28:52;;;;;;;4.73;1.13;;;11.80;97.70;;;;;;4976275;28;20447;-66
2022/12/27 09:31:19;;;;;;;0.90;0.77;;;11.80;97.70;;;;;;4978090;28;20462;-67
2022/12/27 09:33:45;;;;;;;1.90;0.97;;;11.90;97.40;;;;;;4988962;28;20431;-67
2022/12/27 09:36:13;;;;;;;1.00;1.00;;;11.90;96.80;;;;;;4995059;28;20784;-70
2022/12/27 09:38:40;;;;;;;1.07;0.97;;;12.00;97.10;;;;;;4995183;28;20409;-70
2022/12/27 09:41:35;;;;;;;1.20;1.10;;;12.00;97.20;;;;;;4994659;28;20854;-71
2022/12/27 09:44:12;;;;;;;2.20;0.93;;;12.10;97.20;;;;;;4993877;28;20524;-66
2022/12/27 09:46:40;;;;;;;0.60;0.60;;;12.40;97.20;;;;;;4994820;28;20855;-66
2022/12/27 09:49:10;;;;;;;0.83;0.70;;;12.60;95.60;;;;;;4994859;28;20410;-66
2022/12/27 09:51:45;;;;;;;1.17;1.07;;;12.80;96.40;;;;;;4994925;28;20995;-69
2022/12/27 09:54:21;;;;;;;1.30;1.03;;;12.90;95.70;;;;;;4993689;28;20818;-70
2022/12/27 09:56:49;;;;;;;0.83;0.80;;;13.00;95.70;;;;;;4990233;28;20418;-67
2022/12/27 09:59:26;;;;;;;0.90;0.90;;;13.10;95.70;;;;;;4975132;28;20427;-65
2022/12/27 10:01:52;;;;;;;1.60;1.10;;;13.30;95.60;;;;;;4977412;28;20415;-66
2022/12/27 10:04:18;;;;;;;1.90;0.90;;;13.40;94.10;;;;;;4974538;28;20467;-65
2022/12/27 10:06:50;;;;;;;2.00;1.20;;;13.30;94.00;;;;;;4974940;28;20681;-65
2022/12/27 10:09:51;;;;;;;0.77;0.77;;;13.30;94.30;;;;;;4991414;28;20429;-65
2022/12/27 10:12:45;;;;;;;0.97;0.90;;;13.30;93.80;;;;;;4994034;28;20418;-65
2022/12/27 10:15:37;;;;;;;1.07;0.90;;;13.20;93.70;;;;;;4979326;28;20463;-65
2022/12/27 10:18:22;;;;;;;1.10;1.03;;;13.00;93.50;;;;;;4987557;28;20455;-65
2022/12/27 10:21:11;;;;;;;3.37;1.13;;;12.90;93.70;;;;;;4972843;28;20410;-65
2022/12/27 10:23:42;;;;;;;3.07;1.07;;;12.80;94.10;;;;;;4986321;28;20553;-66
2022/12/27 10:26:16;;;;;;;1.90;1.17;;;12.80;94.40;;;;;;4992289;28;20420;-64
2022/12/27 10:28:45;;;;;;;1.20;1.10;;;12.50;94.50;;;;;;4992394;28;20520;-64
2022/12/27 10:31:16;;;;;;;0.73;0.60;;;12.40;94.60;;;;;;4993132;28;20934;-65
2022/12/27 10:33:43;;;;;;;1.10;1.00;;;12.40;94.70;;;;;;4976605;28;20424;-64
2022/12/27 10:36:15;;;;;;;4.20;1.70;;;12.50;94.90;;;;;;4994206;28;20408;-64
2022/12/27 10:38:41;;;;;;;0.90;0.90;;;12.50;94.40;;;;;;4993569;28;20797;-66
2022/12/27 10:41:15;;;;;;;1.00;1.00;;;12.40;95.60;;;;;;4977030;28;20420;-66
2022/12/27 10:43:43;;;;;;;1.90;1.33;;;12.30;95.00;;;;;;4993723;28;20699;-65
2022/12/27 10:46:18;;;;;;;1.60;1.30;;;12.20;95.30;;;;;;4994198;28;20414;-66
2022/12/27 10:48:56;;;;;;;1.63;1.13;;;12.30;95.30;;;;;;4993971;28;20422;-66
2022/12/27 10:51:23;;;;;;;1.37;1.27;;;12.50;95.00;;;;;;4993901;28;20529;-65
2022/12/27 10:53:48;;;;;;;1.30;1.20;;;12.40;95.10;;;;;;4993241;28;20541;-66
2022/12/27 10:56:16;;;;;;;1.00;1.00;;;12.20;95.20;;;;;;4994056;28;20506;-65
2022/12/27 10:58:46;;;;;;;0.73;0.70;;;12.10;95.80;;;;;;4993934;28;20237;-65
2022/12/27 11:01:29;;;;;;;2.57;1.30;;;12.00;95.30;;;;;;4994125;28;20410;-65
2022/12/27 11:04:20;;;;;;;1.33;1.10;;;11.90;95.80;;;;;;4993434;28;20470;-65
2022/12/27 11:07:09;;;;;;;0.90;0.90;;;11.90;95.90;;;;;;4993582;28;20434;-65
2022/12/27 11:09:42;;;;;;;1.10;1.00;;;11.80;95.80;;;;;;4993873;28;20402;-65
2022/12/27 11:12:13;;;;;;;1.10;1.00;;;11.60;95.70;;;;;;4993870;28;20422;-63
2022/12/27 11:14:39;;;;;;;0.83;0.83;;;11.30;96.10;;;;;;4994169;28;20444;-63
2022/12/27 11:17:09;;;;;;;2.33;1.30;;;11.00;96.00;;;;;;4994725;28;20410;-66
2022/12/27 11:19:38;;;;;;;0.90;0.90;;;10.80;96.50;;;;;;4976619;28;20414;-65
2022/12/27 11:22:07;;;;;;;8.10;1.30;;;10.60;97.00;;;;;;4993762;28;20424;-66
2022/12/27 11:24:33;;;;;;;0.87;0.80;;;10.30;97.70;;;;;;4993966;28;20789;-65
2022/12/27 11:26:59;;;;;;;1.80;1.00;;;10.10;98.30;;;;;;4993841;28;20486;-65
2022/12/27 11:29:28;;;;;;;2.53;1.10;;;9.90;99.90;;;;;;4974652;28;20760;-65
2022/12/27 11:31:55;;;;;;;1.10;1.00;;;9.80;99.90;;;;;;4974307;28;20485;-64
2022/12/27 11:34:32;;;;;;;3.45;1.08;;;9.80;99.90;;;;;;4973596;28;20435;-65
2022/12/27 11:37:14;;;;;;;1.53;0.97;;;9.60;99.90;;;;;;4972713;28;20181;-64
2022/12/27 11:39:45;;;;;;;0.75;0.75;;;9.50;99.90;;;;;;4974768;28;20779;-64
2022/12/27 11:42:27;;;;;;;2.50;1.10;;;9.50;99.90;;;;;;4980044;28;20681;-64
2022/12/27 11:45:11;;;;;;;1.05;1.05;;;9.40;99.90;;;;;;4997564;28;20226;-65
2022/12/27 11:47:43;;;;;;;1.50;1.40;;;9.20;99.90;;;;;;4998501;28;20201;-64
2022/12/27 11:50:26;;;;;;;0.90;0.90;;;9.20;99.90;;;;;;4997469;28;20246;-64
2022/12/27 11:53:27;;;;;;;1.27;1.20;;;9.10;99.90;;;;;;4996997;28;20172;-65
2022/12/27 11:56:11;;;;;;;1.70;1.60;;;9.10;99.90;;;;;;4997143;28;20176;-65
2022/12/27 11:58:40;;;;;;;1.10;1.10;;;9.10;99.90;;;;;;4980715;28;20175;-64
2022/12/27 12:01:30;;;;;;;1.48;1.30;;;9.00;99.90;;;;;;4997459;28;20569;-64
2022/12/27 12:04:21;;;;;;;0.70;0.70;;;9.00;99.90;;;;;;4996641;28;20207;-65
2022/12/27 12:07:16;;;;;;;1.10;1.00;;;9.00;99.90;;;;;;4996964;28;20183;-64
2022/12/27 12:10:11;;;;;;;0.80;0.60;;;9.10;99.90;;;;;;4997036;28;20172;-66
2022/12/27 12:13:07;;;;;;;0.80;0.80;;;9.10;99.90;;;;;;4996938;28;20169;-64
2022/12/27 12:16:02;;;;;;;0.60;0.60;;;9.20;99.90;;;;;;4996784;28;20555;-64
2022/12/27 12:18:54;;;;;;;1.10;1.00;;;9.30;99.90;;;;;;4996534;28;20183;-64
2022/12/27 12:21:40;;;;;;;0.55;0.55;;;9.20;99.90;;;;;;4995126;28;20189;-64
2022/12/27 12:24:26;;;;;;;0.60;0.60;;;9.30;99.90;;;;;;4996146;28;20300;-64
2022/12/27 12:26:57;;;;;;;1.48;0.68;;;9.30;99.90;;;;;;4996773;28;20222;-65
2022/12/27 12:29:38;;;;;;;0.65;0.65;;;9.40;99.90;;;;;;4996655;28;20171;-65
2022/12/27 12:32:44;;;;;;;1.05;0.73;;;9.40;99.90;;;;;;4996765;28;20647;-64
2022/12/27 12:35:39;;;;;;;0.75;0.75;;;9.50;99.90;;;;;;4977147;28;20267;-65
2022/12/27 12:38:16;;;;;;;5.70;0.85;;;9.50;99.90;;;;;;4977357;28;20168;-65
2022/12/27 12:41:06;;;;;;;0.75;0.75;;;9.50;99.90;;;;;;4977605;28;20184;-64
2022/12/27 12:44:04;;;;;;;1.48;0.82;;;9.50;99.90;;;;;;4995891;28;20291;-65
2022/12/27 12:46:44;;;;;;;0.50;0.50;;;9.50;99.90;;;;;;4996574;28;20551;-65
2022/12/27 12:50:06;;;;;;;1.63;1.23;;;9.50;99.90;;;;;;4996242;28;20180;-65
2022/12/27 12:53:17;;;;;;;0.50;0.50;;;9.40;99.90;;;;;;4934742;29;20268;-65
2022/12/27 12:55:50;;;;;;;0.85;0.82;;;9.40;99.90;;;;;;4931256;29;20240;-65
2022/12/27 12:58:27;;;;;;;1.67;0.70;;;9.30;99.90;;;;;;4936230;29;20196;-65
2022/12/27 13:00:53;;;;;;;3.10;0.88;;;9.40;99.90;;;;;;4935878;29;20260;-65
2022/12/27 13:03:48;;;;;;;0.80;0.80;;;9.40;99.90;;;;;;4935473;29;20316;-64
2022/12/27 13:06:54;;;;;;;1.08;0.77;;;9.50;99.90;;;;;;4935733;29;20295;-65
2022/12/27 13:09:30;;;;;;;0.98;0.93;;;9.50;99.90;;;;;;4933075;29;20173;-65
2022/12/27 13:11:58;;;;;;;0.77;0.77;;;9.60;99.90;;;;;;4936096;29;20171;-64
2022/12/27 13:14:27;;;;;;;1.40;0.70;;;9.60;99.90;;;;;;4935405;29;20202;-64
2022/12/27 13:17:22;;;;;;;1.30;1.10;;;9.70;99.90;;;;;;4906395;29;20193;-64
2022/12/27 13:20:13;;;;;;;0.75;0.75;;;9.70;99.90;;;;;;4916799;29;20411;-64
2022/12/27 13:22:45;;;;;;;1.15;0.75;;;9.80;99.90;;;;;;4938118;28;20184;-64
2022/12/27 13:25:36;;;;;;;1.60;0.90;;;9.80;99.90;;;;;;4976074;28;20195;-64
2022/12/27 13:28:23;;;;;;;1.25;0.80;;;9.80;99.90;;;;;;4976081;28;20166;-64
2022/12/27 13:31:34;;;;;;;3.40;0.90;;;9.80;99.90;;;;;;4991818;28;20180;-64
2022/12/27 13:34:28;;;;;;;1.63;0.93;;;9.80;99.90;;;;;;4934984;29;20461;-64
2022/12/27 13:37:09;;;;;;;2.92;0.98;;;9.90;99.90;;;;;;4995605;28;20405;-65
2022/12/27 13:39:41;;;;;;;0.90;0.87;;;9.90;99.90;;;;;;4977906;28;20186;-65
2022/12/27 13:42:41;;;;;;;0.60;0.52;;;9.90;99.90;;;;;;4995208;28;20417;-65
2022/12/27 13:45:38;;;;;;;1.42;0.90;;;9.90;99.90;;;;;;4994461;28;20228;-66
2022/12/27 13:48:25;;;;;;;1.08;0.80;;;9.90;99.90;;;;;;4994964;28;20243;-64
2022/12/27 13:51:09;;;;;;;0.45;0.43;;;9.80;99.90;;;;;;4994890;28;20600;-63
2022/12/27 13:53:49;;;;;;;1.35;0.70;;;9.80;99.90;;;;;;4994734;28;20173;-63
2022/12/27 13:56:32;;;;;;;1.27;0.93;;;9.70;99.90;;;;;;4995207;28;20179;-64
2022/12/27 13:59:12;;;;;;;1.77;1.10;;;9.60;99.90;;;;;;4994732;28;20307;-64
2022/12/27 14:01:48;;;;;;;1.02;0.93;;;9.60;99.90;;;;;;4995039;28;20234;-64
2022/12/27 14:04:23;;;;;;;1.27;1.10;;;9.50;99.90;;;;;;4976804;28;20268;-64
2022/12/27 14:07:17;;;;;;;1.50;1.05;;;9.50;99.90;;;;;;4994626;28;20190;-63
2022/12/27 14:10:12;;;;;;;2.58;1.25;;;9.40;99.90;;;;;;4994794;28;20175;-63
2022/12/27 14:13:00;;;;;;;2.47;1.17;;;9.40;99.90;;;;;;4994539;28;20368;-64
2022/12/27 14:15:50;;;;;;;0.75;0.75;;;9.30;99.90;;;;;;4994489;28;20191;-65
2022/12/27 14:18:34;;;;;;;0.60;0.60;;;9.30;99.90;;;;;;4994686;28;20251;-65
2022/12/27 14:21:18;;;;;;;1.60;1.50;;;9.30;99.90;;;;;;4994444;28;20245;-64
2022/12/27 14:24:07;;;;;;;1.40;0.70;;;9.20;99.90;;;;;;4994052;28;20200;-63
2022/12/27 14:26:58;;;;;;;0.80;0.80;;;9.20;99.90;;;;;;4994658;28;20728;-64
2022/12/27 14:29:42;;;;;;;0.90;0.90;;;9.20;99.90;;;;;;4990621;28;20187;-64
2022/12/27 14:32:36;;;;;;;2.95;1.08;;;9.20;99.90;;;;;;4994498;28;20167;-63
2022/12/27 14:35:15;;;;;;;4.03;1.23;;;9.10;99.90;;;;;;4993375;28;20191;-64
2022/12/27 14:38:00;;;;;;;1.60;0.85;;;9.10;99.90;;;;;;4977067;28;20194;-64
2022/12/27 14:40:40;;;;;;;1.00;0.90;;;9.00;99.90;;;;;;4994419;28;20511;-63
2022/12/27 14:43:33;;;;;;;1.60;0.40;;;9.00;99.90;;;;;;4979820;28;20207;-66
2022/12/27 14:46:32;;;;;;;0.93;0.93;;;8.90;99.90;;;;;;4974662;28;20182;-68
2022/12/27 14:49:19;;;;;;;0.70;0.70;;;8.90;99.90;;;;;;4974549;28;20172;-67
2022/12/27 14:52:19;;;;;;;0.93;0.88;;;8.80;99.90;;;;;;4982096;28;20172;-66
2022/12/27 14:55:10;;;;;;;1.52;0.70;;;8.70;99.90;;;;;;4993527;28;20330;-66
2022/12/27 14:57:53;;;;;;;0.75;0.75;;;8.60;99.90;;;;;;4993724;28;20175;-66
2022/12/27 15:00:23;;;;;;;0.80;0.70;;;8.60;99.90;;;;;;4994012;28;20175;-68
2022/12/27 15:03:36;;;;;;;1.05;1.05;;;8.50;99.90;;;;;;4983676;28;20187;-68
2022/12/27 15:06:10;;;;;;;0.70;0.70;;;8.50;99.90;;;;;;4895920;29;20218;-69
2022/12/27 15:08:52;;;;;;;0.95;0.80;;;8.40;99.90;;;;;;4893159;29;20183;-75
2022/12/27 15:11:39;;;;;;;0.80;0.70;;;8.30;99.90;;;;;;4950499;28;20182;-70
2022/12/27 15:14:20;;;;;;;1.58;0.95;;;8.30;99.90;;;;;;4990049;28;20219;-69
2022/12/27 15:16:54;;;;;;;1.85;0.82;;;8.20;99.90;;;;;;4977609;28;20544;-68
2022/12/27 15:19:29;;;;;;;2.80;1.70;;;8.20;99.90;;;;;;4978416;28;20521;-70
2022/12/27 15:22:34;;;;;;;1.58;1.33;;;8.10;99.90;;;;;;4980578;28;20641;-70
2022/12/27 15:25:21;;;;;;;0.80;0.80;;;8.00;99.90;;;;;;4989778;28;20214;-69
2022/12/27 15:27:58;;;;;;;1.02;0.93;;;8.00;99.90;;;;;;4984336;28;20250;-67
2022/12/27 15:30:24;;;;;;;5.07;0.95;;;7.90;99.90;;;;;;4994267;28;20171;-69
2022/12/27 15:33:20;;;;;;;0.80;0.80;;;7.80;99.90;;;;;;4995668;28;20202;-68
2022/12/27 15:36:00;;;;;;;0.80;0.75;;;7.80;99.90;;;;;;4961558;28;20250;-68
2022/12/27 15:38:38;;;;;;;1.02;0.93;;;7.70;99.90;;;;;;4982277;28;20180;-68
2022/12/27 15:41:07;;;;;;;1.40;1.02;;;7.60;99.90;;;;;;4977896;28;20198;-70
2022/12/27 15:43:49;;;;;;;1.30;1.20;;;7.50;99.90;;;;;;4982183;28;20294;-67
2022/12/27 15:46:33;;;;;;;0.65;0.65;;;7.40;99.90;;;;;;4991482;28;20183;-66
2022/12/27 15:49:04;;;;;;;2.00;1.20;;;7.30;99.90;;;;;;4992818;28;20270;-66
2022/12/27 15:51:49;;;;;;;1.60;1.10;;;7.30;99.90;;;;;;4977958;28;20164;-68
2022/12/27 15:54:26;;;;;;;0.70;0.70;;;7.20;99.90;;;;;;4977308;28;20266;-64
2022/12/27 15:57:05;;;;;;;1.35;1.35;;;7.10;99.90;;;;;;4960302;28;20189;-67
2022/12/27 15:59:33;;;;;;;1.40;0.82;;;7.10;99.90;;;;;;4993494;28;20185;-66
2022/12/27 16:02:47;;;;;;;0.80;0.65;;;7.00;99.90;;;;;;4995277;28;20179;-70
2022/12/27 16:05:19;;;;;;;1.75;1.23;;;7.00;99.90;;;;;;4991138;28;20250;-71
2022/12/27 16:07:57;;;;;;;1.95;1.77;;;6.90;99.90;;;;;;4979460;28;20186;-68
2022/12/27 16:10:40;;;;;;;2.15;1.33;;;6.90;99.90;;;;;;4982231;28;20175;-69
2022/12/27 16:13:09;;;;;;;1.02;0.98;;;6.80;99.90;;;;;;4979209;28;20182;-69
2022/12/27 16:15:48;;;;;;;1.20;0.68;;;6.80;99.90;;;;;;4996465;28;20629;-73
2022/12/27 16:18:22;;;;;;;0.70;0.70;;;6.80;99.90;;;;;;4996662;28;20531;-72
2022/12/27 16:21:17;;;;;;;1.00;1.00;;;6.70;99.90;;;;;;4996475;28;20201;-71
2022/12/27 16:23:45;;;;;;;0.82;0.82;;;6.60;99.90;;;;;;4996351;28;20616;-72
2022/12/27 16:26:27;;;;;;;2.92;0.80;;;6.60;99.90;;;;;;4996418;28;20529;-71
2022/12/27 16:28:57;;;;;;;0.80;0.80;;;6.50;99.90;;;;;;4990214;28;20172;-67
2022/12/27 16:31:28;;;;;;;0.85;0.77;;;6.50;99.90;;;;;;4977165;28;20203;-67
2022/12/27 16:33:56;;;;;;;1.05;0.68;;;6.50;99.90;;;;;;4994856;28;20216;-68
2022/12/27 16:36:33;;;;;;;1.20;0.93;;;6.40;99.90;;;;;;4978919;28;20178;-65
2022/12/27 16:39:37;;;;;;;1.17;1.17;;;6.40;99.90;;;;;;4996493;28;20264;-65
2022/12/27 16:42:05;;;;;;;1.75;1.65;;;6.30;99.90;;;;;;4993107;28;20172;-66
2022/12/27 16:44:55;;;;;;;1.77;1.20;;;6.40;99.90;;;;;;4985760;28;20604;-66
2022/12/27 16:47:58;;;;;;;2.22;2.03;;;6.30;99.90;;;;;;4992163;28;20203;-66
2022/12/27 16:50:36;;;;;;;1.90;1.80;;;6.30;99.90;;;;;;4990175;28;20192;-67
2022/12/27 16:53:20;;;;;;;3.25;1.80;;;6.30;99.90;;;;;;4989347;28;20183;-67
2022/12/27 16:56:17;;;;;;;3.40;1.73;;;6.20;99.90;;;;;;4986081;28;20188;-66
2022/12/27 16:58:43;;;;;;;3.30;1.45;;;6.10;99.90;;;;;;4985657;28;20257;-62
2022/12/27 17:01:17;;;;;;;3.55;1.88;;;6.10;99.90;;;;;;4968042;28;20174;-70
2022/12/27 17:03:46;;;;;;;1.40;1.30;;;6.10;99.90;;;;;;4994808;28;20222;-67
2022/12/27 17:06:17;;;;;;;1.13;1.02;;;6.00;99.90;;;;;;4995835;28;20522;-67
2022/12/27 17:08:44;;;;;;;1.35;1.15;;;6.00;99.90;;;;;;4995847;28;20676;-66
2022/12/27 17:11:27;;;;;;;1.65;1.10;;;6.00;99.90;;;;;;4995767;28;20283;-64
2022/12/27 17:14:09;;;;;;;2.28;1.83;;;6.00;99.90;;;;;;4995477;28;20268;-67
2022/12/27 17:16:54;;;;;;;1.02;1.02;;;6.00;99.90;;;;;;4976535;28;20184;-66
2022/12/27 17:20:00;;;;;;;1.98;1.02;;;6.00;99.90;;;;;;4992265;28;20171;-66
2022/12/27 17:22:26;;;;;;;2.92;1.45;;;5.90;99.90;;;;;;4991800;28;20195;-65
2022/12/27 17:24:57;;;;;;;1.70;1.60;;;5.90;99.90;;;;;;4995303;28;20208;-67
2022/12/27 17:27:32;;;;;;;2.55;1.90;;;5.90;99.90;;;;;;4995452;28;20167;-68
2022/12/27 17:30:04;;;;;;;2.08;1.95;;;5.90;99.90;;;;;;4995107;28;20180;-68
2022/12/27 17:32:39;;;;;;;2.42;2.22;;;5.80;99.90;;;;;;4987080;28;20173;-66
2022/12/27 17:35:26;;;;;;;1.85;1.75;;;5.70;99.90;;;;;;4967456;28;20708;-65
2022/12/27 17:38:11;;;;;;;2.53;1.67;;;5.70;99.90;;;;;;4985136;28;20184;-65
2022/12/27 17:41:14;;;;;;;3.20;3.00;;;5.60;99.90;;;;;;4989335;28;20595;-65
2022/12/27 17:47:01;;;;;;;2.55;2.35;;;5.50;99.90;;;;;;4995354;28;20259;-67
2022/12/27 17:49:30;;;;;;;2.15;1.95;;;5.40;99.90;;;;;;4995351;28;20690;-65
2022/12/27 18:00:28;;;;;;;1.60;1.30;;;5.10;99.90;;;;;;4994109;28;20668;-65
2022/12/27 18:02:57;;;;;;;2.38;2.10;;;5.10;99.90;;;;;;4994643;28;20183;-65
2022/12/27 18:05:29;;;;;;;3.05;2.30;;;5.00;99.90;;;;;;4988892;28;20212;-66
2022/12/27 18:08:27;;;;;;;2.67;1.83;;;4.90;99.90;;;;;;4975757;28;20172;-62
2022/12/27 18:10:53;;;;;;;5.60;3.72;;;4.90;99.90;;;;;;4970843;28;20211;-62
2022/12/27 18:13:23;;;;;;;3.63;3.17;;;4.80;99.90;;;;;;4974808;28;20182;-65
2022/12/27 18:15:50;;;;;;;4.00;3.30;;;4.70;99.90;;;;;;4975414;28;20176;-64
2022/12/27 18:18:37;;;;;;;5.53;3.30;;;4.70;99.90;;;;;;4975190;28;20197;-63
2022/12/27 18:21:04;;;;;;;3.50;3.20;;;4.60;99.90;;;;;;4975101;28;20279;-63
2022/12/27 18:23:41;;;;;;;2.90;2.70;;;4.50;99.90;;;;;;4984576;28;20203;-62
2022/12/27 18:26:12;;;;;;;3.15;2.42;;;4.40;99.90;;;;;;4990094;28;20180;-64
2022/12/27 18:28:39;;;;;;;2.20;2.05;;;4.40;99.90;;;;;;4985156;28;20183;-64
2022/12/27 18:31:18;;;;;;;3.15;2.70;;;4.40;99.90;;;;;;4994154;28;20573;-63
2022/12/27 18:33:49;;;;;;;3.80;2.47;;;4.30;99.90;;;;;;4993465;28;20258;-63
2022/12/27 18:36:32;;;;;;;1.90;1.80;;;4.30;99.90;;;;;;4986960;28;20190;-63
2022/12/27 18:39:02;;;;;;;2.55;2.20;;;4.20;99.90;;;;;;4984216;28;20179;-63
2022/12/27 18:41:40;;;;;;;2.53;2.33;;;4.20;99.90;;;;;;4982636;28;20262;-62
2022/12/27 18:44:17;;;;;;;2.67;2.45;;;4.10;99.90;;;;;;4982514;28;20724;-62
2022/12/27 18:46:48;;;;;;;2.58;2.40;;;4.10;99.90;;;;;;4983155;28;20176;-62
2022/12/27 18:49:27;;;;;;;4.22;3.50;;;4.10;99.90;;;;;;4968112;28;20208;-63
2022/12/27 18:51:53;;;;;;;2.97;2.70;;;4.10;99.90;;;;;;4991669;28;20167;-62
2022/12/27 18:54:28;;;;;;;3.97;3.55;;;4.00;99.90;;;;;;4988830;28;20195;-62
2022/12/27 18:56:55;;;;;;;7.45;3.88;;;3.90;99.90;;;;;;4982685;28;20178;-64
2022/12/27 18:59:34;;;;;;;4.32;2.85;;;3.90;99.90;;;;;;4990839;28;20667;-63
2022/12/27 19:02:31;;;;;;;2.90;2.70;;;3.80;99.90;;;;;;4984465;28;20187;-64
2022/12/27 19:05:18;;;;;;;3.25;2.95;;;3.80;99.90;;;;;;4982039;28;20566;-63